createdAt,value
2022-10-06T00:00:50.340Z,4.80
2022-10-06T00:03:17.801Z,5.97
2022-10-06T00:05:45.051Z,5.50
2022-10-06T00:08:12.232Z,6.32
2022-10-06T00:10:40.021Z,3.38
2022-10-06T00:13:08.316Z,4.30
2022-10-06T00:15:35.397Z,4.07
2022-10-06T00:18:02.762Z,5.38
2022-10-06T00:20:30.095Z,3.97
2022-10-06T00:22:57.265Z,7.97
2022-10-06T00:25:25.644Z,4.22
2022-10-06T00:27:53.072Z,5.53
2022-10-06T00:30:26.705Z,7.25
2022-10-06T00:33:01.103Z,5.60
2022-10-06T00:35:33.714Z,3.75
2022-10-06T00:38:01.342Z,4.65
2022-10-06T00:40:29.259Z,4.35
2022-10-06T00:42:59.635Z,5.32
2022-10-06T00:45:31.191Z,6.28
2022-10-06T00:48:04.171Z,5.25
2022-10-06T00:50:31.481Z,6.10
2022-10-06T00:52:58.679Z,4.22
2022-10-06T00:55:26.039Z,5.53
2022-10-06T00:57:53.438Z,3.50
2022-10-06T01:00:20.949Z,5.93
2022-10-06T01:02:54.796Z,7.28
2022-10-06T01:05:33.395Z,5.25
2022-10-06T01:08:01.047Z,5.32
2022-10-06T01:10:28.295Z,6.03
2022-10-06T01:12:57.074Z,4.35
2022-10-06T01:15:25.358Z,6.43
2022-10-06T01:18:00.999Z,5.45
2022-10-06T01:20:29.998Z,5.78
2022-10-06T01:23:10.164Z,4.20
2022-10-06T01:25:37.578Z,8.88
2022-10-06T01:28:06.762Z,5.43
2022-10-06T01:30:41.670Z,5.13
2022-10-06T01:33:08.881Z,5.03
2022-10-06T01:35:36.138Z,3.10
2022-10-06T01:38:03.493Z,3.38
2022-10-06T01:40:30.660Z,4.75
2022-10-06T01:42:57.726Z,4.78
2022-10-06T01:45:24.848Z,5.28
2022-10-06T01:47:52.940Z,4.30
2022-10-06T01:50:20.283Z,7.18
2022-10-06T01:52:47.414Z,5.45
2022-10-06T01:55:14.576Z,3.25
2022-10-06T01:57:42.237Z,4.57
2022-10-06T02:00:11.423Z,6.40
2022-10-06T02:02:38.578Z,6.82
2022-10-06T02:05:06.148Z,5.25
2022-10-06T02:07:35.454Z,9.80
2022-10-06T02:10:04.266Z,5.10
2022-10-06T02:12:32.010Z,6.75
2022-10-06T02:14:59.539Z,5.00
2022-10-06T02:17:26.764Z,3.65
2022-10-06T02:19:53.962Z,3.40
2022-10-06T02:22:21.092Z,3.70
2022-10-06T02:24:48.263Z,4.97
2022-10-06T02:27:15.399Z,4.60
2022-10-06T02:29:42.616Z,4.97
2022-10-06T02:32:10.101Z,4.10
2022-10-06T02:34:37.189Z,2.78
2022-10-06T02:37:05.430Z,4.20
2022-10-06T02:39:32.472Z,3.40
2022-10-06T02:41:59.617Z,7.07
2022-10-06T02:44:26.742Z,5.00
2022-10-06T02:46:53.976Z,4.50
2022-10-06T02:49:21.171Z,6.45
2022-10-06T02:51:48.447Z,5.53
2022-10-06T02:54:15.577Z,6.75
2022-10-06T02:56:43.055Z,4.22
2022-10-06T02:59:10.444Z,3.35
2022-10-06T03:01:37.647Z,4.93
2022-10-06T03:04:04.758Z,7.10
2022-10-06T03:06:32.048Z,3.53
2022-10-06T03:08:59.924Z,7.38
2022-10-06T03:11:29.584Z,4.30
2022-10-06T03:13:57.144Z,4.22
2022-10-06T03:16:30.083Z,5.65
2022-10-06T03:18:57.692Z,7.30
2022-10-06T03:21:27.232Z,4.53
2022-10-06T03:23:54.499Z,7.25
2022-10-06T03:26:24.370Z,5.65
2022-10-06T03:28:51.406Z,3.20
2022-10-06T03:31:18.693Z,7.82
2022-10-06T03:33:45.804Z,6.90
2022-10-06T03:36:15.222Z,3.95
2022-10-06T03:38:42.666Z,3.30
2022-10-06T03:41:14.508Z,3.03
2022-10-06T03:43:43.958Z,7.90
2022-10-06T03:46:12.949Z,5.20
2022-10-06T03:48:40.631Z,3.95
2022-10-06T03:51:13.258Z,4.30
2022-10-06T03:53:40.792Z,3.65
2022-10-06T03:56:31.125Z,3.83
2022-10-06T03:59:00.091Z,4.85
2022-10-06T04:01:29.757Z,3.83
2022-10-06T04:03:58.831Z,8.77
2022-10-06T04:06:28.459Z,6.50
2022-10-06T04:08:55.963Z,4.68
2022-10-06T04:11:23.954Z,4.32
2022-10-06T04:13:58.890Z,5.95
2022-10-06T04:16:34.597Z,2.72
2022-10-06T04:19:05.196Z,3.42
2022-10-06T04:21:34.964Z,5.22
2022-10-06T04:24:02.032Z,2.65
2022-10-06T04:26:35.214Z,4.35
2022-10-06T04:29:02.476Z,2.05
2022-10-06T04:31:32.679Z,1.75
2022-10-06T04:34:01.496Z,1.98
2022-10-06T04:36:33.496Z,4.80
2022-10-06T04:39:02.826Z,4.00
2022-10-06T04:41:37.069Z,3.95
2022-10-06T04:44:04.676Z,2.80
2022-10-06T04:46:47.916Z,4.57
2022-10-06T04:49:19.913Z,3.42
2022-10-06T04:51:49.525Z,4.97
2022-10-06T04:54:17.224Z,3.10
2022-10-06T04:56:44.339Z,1.70
2022-10-06T04:59:11.391Z,2.75
2022-10-06T05:01:38.444Z,4.78
2022-10-06T05:04:06.294Z,1.45
2022-10-06T05:06:38.458Z,2.13
2022-10-06T05:09:07.579Z,1.42
2022-10-06T05:11:35.155Z,4.40
2022-10-06T05:14:02.283Z,2.08
2022-10-06T05:16:30.628Z,3.42
2022-10-06T05:18:58.452Z,2.33
2022-10-06T05:21:27.851Z,4.78
2022-10-06T05:23:54.917Z,1.65
2022-10-06T05:26:24.409Z,1.70
2022-10-06T05:28:51.635Z,4.68
2022-10-06T05:31:21.083Z,3.55
2022-10-06T05:33:49.424Z,1.50
2022-10-06T05:36:18.599Z,5.43
2022-10-06T05:38:45.790Z,2.90
2022-10-06T05:41:15.082Z,3.17
2022-10-06T05:43:42.568Z,3.58
2022-10-06T05:46:17.450Z,3.88
2022-10-06T05:48:46.902Z,5.07
2022-10-06T05:51:14.763Z,6.95
2022-10-06T05:53:41.896Z,10.20
2022-10-06T05:56:12.367Z,4.15
2022-10-06T05:58:41.025Z,4.10
2022-10-06T06:01:28.267Z,5.78
2022-10-06T06:04:00.173Z,2.88
2022-10-06T06:06:31.873Z,2.28
2022-10-06T06:09:09.211Z,6.25
2022-10-06T06:11:39.916Z,8.65
2022-10-06T06:14:12.002Z,3.58
2022-10-06T06:16:40.133Z,3.13
2022-10-06T06:19:08.653Z,4.93
2022-10-06T06:21:35.682Z,4.55
2022-10-06T06:24:06.024Z,6.53
2022-10-06T06:26:36.712Z,3.42
2022-10-06T06:29:05.220Z,3.55
2022-10-06T06:31:40.041Z,13.27
2022-10-06T06:34:07.641Z,7.43
2022-10-06T06:36:40.725Z,4.15
2022-10-06T06:39:12.968Z,1.70
2022-10-06T06:41:42.039Z,7.38
2022-10-06T06:44:11.360Z,2.58
2022-10-06T06:46:39.313Z,4.68
2022-10-06T06:49:06.812Z,3.63
2022-10-06T06:51:35.735Z,4.97
2022-10-06T06:54:03.756Z,9.82
2022-10-06T06:56:38.577Z,4.30
2022-10-06T06:59:13.024Z,3.40
2022-10-06T07:01:45.683Z,4.35
2022-10-06T07:04:14.492Z,3.30
2022-10-06T07:06:42.421Z,5.60
2022-10-06T07:09:12.467Z,3.22
2022-10-06T07:11:40.119Z,5.90
2022-10-06T07:14:09.409Z,6.25
2022-10-06T07:16:55.142Z,4.75
2022-10-06T07:19:40.433Z,4.40
2022-10-06T07:22:26.456Z,7.50
2022-10-06T07:27:42.439Z,6.78
2022-10-06T07:30:20.797Z,2.85
2022-10-06T07:32:50.196Z,9.82
2022-10-06T07:35:20.232Z,5.75
2022-10-06T07:37:48.192Z,5.63
2022-10-06T07:40:15.210Z,5.88
2022-10-06T07:42:48.702Z,6.70
2022-10-06T07:45:39.215Z,5.82
2022-10-06T07:48:14.781Z,3.47
2022-10-06T07:53:09.294Z,4.93
2022-10-06T07:55:37.018Z,4.63
2022-10-06T07:58:04.134Z,4.68
2022-10-06T08:03:04.799Z,5.90
2022-10-06T08:05:32.263Z,6.65
2022-10-06T08:07:59.318Z,6.65
2022-10-06T08:10:26.366Z,7.93
2022-10-06T08:12:53.369Z,4.10
2022-10-06T08:15:20.441Z,6.55
2022-10-06T08:17:47.558Z,6.30
2022-10-06T08:20:14.663Z,7.68
2022-10-06T08:22:41.733Z,4.55
2022-10-06T08:25:10.296Z,8.88
2022-10-06T08:27:38.179Z,17.40
2022-10-06T08:30:06.565Z,10.13
2022-10-06T08:32:34.268Z,5.75
2022-10-06T08:35:01.623Z,11.50
2022-10-06T08:37:28.688Z,10.13
2022-10-06T08:39:56.373Z,9.38
2022-10-06T08:42:38.712Z,12.70
2022-10-06T08:45:23.993Z,24.05
2022-10-06T08:47:57.631Z,9.07
2022-10-06T08:50:27.358Z,10.57
2022-10-06T08:53:16.445Z,14.75
2022-10-06T08:56:00.701Z,8.48
2022-10-06T08:58:58.317Z,10.93
2022-10-06T09:01:47.626Z,10.80
2022-10-06T09:04:25.840Z,17.85
2022-10-06T09:07:06.595Z,13.85
2022-10-06T09:10:06.709Z,10.30
2022-10-06T09:12:49.540Z,12.02
2022-10-06T09:15:33.635Z,8.63
2022-10-06T09:18:03.264Z,8.25
2022-10-06T09:20:34.908Z,10.35
2022-10-06T09:23:04.609Z,12.43
2022-10-06T09:25:31.654Z,9.80
2022-10-06T09:28:00.959Z,9.02
2022-10-06T09:30:28.187Z,8.82
2022-10-06T09:33:00.040Z,12.40
2022-10-06T09:35:31.489Z,7.45
2022-10-06T09:38:08.680Z,11.80
2022-10-06T09:40:42.194Z,10.70
2022-10-06T09:43:27.228Z,9.52
2022-10-06T09:45:55.816Z,17.27
2022-10-06T09:48:25.343Z,12.63
2022-10-06T09:51:15.208Z,11.48
2022-10-06T09:53:43.832Z,12.00
2022-10-06T09:56:15.044Z,16.02
2022-10-06T09:58:53.278Z,8.63
2022-10-06T10:01:24.325Z,14.90
2022-10-06T10:04:18.930Z,14.90
2022-10-06T10:06:41.713Z,12.20
2022-10-06T10:09:21.646Z,10.18
2022-10-06T10:12:26.268Z,6.22
2022-10-06T10:14:56.448Z,9.38
2022-10-06T10:17:33.194Z,13.40
2022-10-06T10:20:01.540Z,10.05
2022-10-06T10:22:40.311Z,6.88
2022-10-06T10:25:38.270Z,9.60
2022-10-06T10:28:19.650Z,11.60
2022-10-06T10:31:33.138Z,10.80
2022-10-06T10:34:12.676Z,6.25
2022-10-06T10:36:53.397Z,8.43
2022-10-06T10:39:31.810Z,4.63
2022-10-06T10:42:02.760Z,10.70
2022-10-06T10:44:34.547Z,8.30
2022-10-06T10:47:17.478Z,6.25
2022-10-06T10:49:50.262Z,8.65
2022-10-06T10:52:21.362Z,9.20
2022-10-06T10:54:48.406Z,6.38
2022-10-06T10:57:17.183Z,10.38
2022-10-06T10:59:57.586Z,8.70
2022-10-06T11:02:25.071Z,10.77
2022-10-06T11:05:10.134Z,6.03
2022-10-06T11:07:46.877Z,6.63
2022-10-06T11:10:26.319Z,8.57
2022-10-06T11:13:28.952Z,9.77
2022-10-06T11:16:37.034Z,5.22
2022-10-06T11:19:14.730Z,14.23
2022-10-06T11:21:48.174Z,7.80
2022-10-06T11:24:16.833Z,5.93
2022-10-06T11:27:22.397Z,6.15
2022-10-06T11:30:14.878Z,9.13
2022-10-06T11:33:04.922Z,5.05
2022-10-06T11:35:40.592Z,5.15
2022-10-06T11:38:07.513Z,6.43
2022-10-06T11:40:48.852Z,8.65
2022-10-06T11:43:34.572Z,12.70
2022-10-06T11:46:17.140Z,8.63
2022-10-06T11:48:44.297Z,5.85
2022-10-06T11:51:21.420Z,6.82
2022-10-06T11:53:48.607Z,6.38
2022-10-06T11:56:15.586Z,9.45
2022-10-06T11:58:51.519Z,5.45
2022-10-06T12:01:43.887Z,7.30
2022-10-06T12:04:11.021Z,5.68
2022-10-06T12:06:46.968Z,8.52
2022-10-06T12:09:30.746Z,5.70
2022-10-06T12:12:17.788Z,11.30
2022-10-06T12:16:58.250Z,9.07
2022-10-06T12:18:14.970Z,8.35
2022-10-06T12:20:57.704Z,10.00
2022-10-06T12:23:38.944Z,9.90
2022-10-06T12:26:12.525Z,8.18
2022-10-06T12:29:02.843Z,8.50
2022-10-06T12:32:08.712Z,10.02
2022-10-06T12:35:08.563Z,4.28
2022-10-06T12:37:43.763Z,10.70
2022-10-06T12:40:39.700Z,8.98
2022-10-06T12:43:12.505Z,5.72
2022-10-06T12:45:46.048Z,7.93
2022-10-06T12:48:26.838Z,6.72
2022-10-06T12:54:25.034Z,5.70
2022-10-06T12:57:19.883Z,5.80
2022-10-06T12:59:49.104Z,8.55
2022-10-06T13:02:22.472Z,6.57
2022-10-06T13:04:52.502Z,10.02
2022-10-06T13:07:20.596Z,6.13
2022-10-06T13:09:49.976Z,12.35
2022-10-06T13:12:23.039Z,10.93
2022-10-06T13:15:14.870Z,17.17
2022-10-06T13:17:48.832Z,9.68
2022-10-06T13:20:39.589Z,7.05
2022-10-06T13:23:28.430Z,11.80
2022-10-06T13:26:15.667Z,11.52
2022-10-06T13:28:45.649Z,6.30
2022-10-06T13:31:33.362Z,5.25
2022-10-06T13:34:10.567Z,7.82
2022-10-06T13:36:39.114Z,7.47
2022-10-06T13:39:10.671Z,4.90
2022-10-06T13:41:44.855Z,4.88
2022-10-06T13:44:11.838Z,9.13
2022-10-06T13:46:44.270Z,4.28
2022-10-06T13:49:18.392Z,4.78
2022-10-06T13:51:48.517Z,5.55
2022-10-06T13:54:25.473Z,5.47
2022-10-06T13:56:53.155Z,8.73
2022-10-06T13:59:30.980Z,8.10
2022-10-06T14:02:02.419Z,5.53
2022-10-06T14:04:29.579Z,4.32
2022-10-06T14:07:00.386Z,4.97
2022-10-06T14:09:31.212Z,4.00
2022-10-06T14:12:15.661Z,5.93
2022-10-06T14:14:47.689Z,6.35
2022-10-06T14:17:21.564Z,5.78
2022-10-06T14:19:48.729Z,3.55
2022-10-06T14:22:38.629Z,9.82
2022-10-06T14:25:12.468Z,7.95
2022-10-06T14:27:39.970Z,6.00
2022-10-06T14:30:07.833Z,5.97
2022-10-06T14:32:38.297Z,5.95
2022-10-06T14:35:09.937Z,6.68
2022-10-06T14:37:37.196Z,5.50
2022-10-06T14:40:06.742Z,3.97
2022-10-06T14:42:36.113Z,5.88
2022-10-06T14:45:03.440Z,5.45
2022-10-06T14:47:31.901Z,7.88
2022-10-06T14:49:59.142Z,7.70
2022-10-06T14:52:26.224Z,5.93
2022-10-06T14:54:53.277Z,7.03
2022-10-06T14:57:21.405Z,8.13
2022-10-06T14:59:49.707Z,8.25
2022-10-06T15:02:20.334Z,4.25
2022-10-06T15:04:47.446Z,7.10
2022-10-06T15:07:33.480Z,4.57
2022-10-06T15:10:00.821Z,7.93
2022-10-06T15:12:31.826Z,5.60
2022-10-06T15:15:00.970Z,6.50
2022-10-06T15:17:28.234Z,5.80
2022-10-06T15:19:55.281Z,11.75
2022-10-06T15:22:22.434Z,5.18
2022-10-06T15:24:51.317Z,5.70
2022-10-06T15:27:37.016Z,6.35
2022-10-06T15:32:31.906Z,4.65
2022-10-06T15:35:00.184Z,10.65
2022-10-06T15:37:27.360Z,4.25
2022-10-06T15:39:54.519Z,9.60
2022-10-06T15:42:24.110Z,5.93
2022-10-06T15:44:51.611Z,6.40
2022-10-06T15:47:18.762Z,7.60
2022-10-06T15:49:46.923Z,4.65
2022-10-06T15:52:14.252Z,6.43
2022-10-06T15:54:41.673Z,5.78
2022-10-06T15:57:11.603Z,9.02
2022-10-06T15:59:41.116Z,6.20
2022-10-06T16:02:14.730Z,4.30
2022-10-06T16:04:42.222Z,8.20
2022-10-06T16:07:14.572Z,8.15
2022-10-06T16:09:43.954Z,5.43
2022-10-06T16:12:12.944Z,8.60
2022-10-06T16:14:40.007Z,6.00
2022-10-06T16:17:07.843Z,6.18
2022-10-06T16:19:38.030Z,7.38
2022-10-06T16:22:06.658Z,5.18
2022-10-06T16:24:33.844Z,6.43
2022-10-06T16:27:01.005Z,4.18
2022-10-06T16:29:28.544Z,8.30
2022-10-06T16:31:56.090Z,6.60
2022-10-06T16:34:23.414Z,10.70
2022-10-06T16:36:50.580Z,13.93
2022-10-06T16:39:19.771Z,8.30
2022-10-06T16:41:47.495Z,6.72
2022-10-06T16:44:14.644Z,10.10
2022-10-06T16:46:42.001Z,3.88
2022-10-06T16:49:09.712Z,8.05
2022-10-06T16:51:38.598Z,9.35
2022-10-06T16:54:11.628Z,5.65
2022-10-06T16:56:41.084Z,5.00
2022-10-06T16:59:13.548Z,7.28
2022-10-06T17:01:40.729Z,4.43
2022-10-06T17:04:16.300Z,10.23
2022-10-06T17:09:14.209Z,6.75
2022-10-06T17:11:43.717Z,6.63
2022-10-06T17:14:11.544Z,6.28
2022-10-06T17:16:40.283Z,9.40
2022-10-06T17:19:07.543Z,9.38
2022-10-06T17:21:55.656Z,9.05
2022-10-06T17:24:22.957Z,4.85
2022-10-06T17:26:50.277Z,6.60
2022-10-06T17:29:19.657Z,8.18
2022-10-06T17:31:48.155Z,10.98
2022-10-06T17:34:20.869Z,6.13
2022-10-06T17:36:50.760Z,7.07
2022-10-06T17:39:20.492Z,3.78
2022-10-06T17:41:49.033Z,8.68
2022-10-06T17:44:22.756Z,4.20
2022-10-06T17:46:52.194Z,5.28
2022-10-06T17:49:21.636Z,8.65
2022-10-06T17:51:49.722Z,9.52
2022-10-06T17:54:19.911Z,11.05
2022-10-06T17:56:48.620Z,7.38
2022-10-06T17:59:18.657Z,12.30
2022-10-06T18:01:53.119Z,7.18
2022-10-06T18:04:20.206Z,12.95
2022-10-06T18:06:48.092Z,9.45
2022-10-06T18:09:15.815Z,10.10
2022-10-06T18:11:44.306Z,10.02
2022-10-06T18:14:16.216Z,7.85
2022-10-06T18:16:45.188Z,7.72
2022-10-06T18:19:17.606Z,8.63
2022-10-06T18:21:47.775Z,7.75
2022-10-06T18:24:19.493Z,9.30
2022-10-06T18:26:49.651Z,9.73
2022-10-06T18:29:24.936Z,13.85
2022-10-06T18:31:53.169Z,6.57
2022-10-06T18:37:08.706Z,9.48
2022-10-06T18:39:35.854Z,9.93
2022-10-06T18:42:05.219Z,10.55
2022-10-06T18:44:51.115Z,7.55
2022-10-06T18:50:03.979Z,8.80
2022-10-06T18:52:31.189Z,10.15
2022-10-06T18:54:58.254Z,10.20
2022-10-06T18:57:27.639Z,14.13
2022-10-06T18:59:55.205Z,11.07
2022-10-06T19:02:22.471Z,13.65
2022-10-06T19:04:49.699Z,13.50
2022-10-06T19:07:16.753Z,10.20
2022-10-06T19:09:46.617Z,10.45
2022-10-06T19:12:14.310Z,13.38
2022-10-06T19:14:47.349Z,11.23
2022-10-06T19:17:15.425Z,12.70
2022-10-06T19:19:45.224Z,11.30
2022-10-06T19:22:14.121Z,9.75
2022-10-06T19:24:42.977Z,16.70
2022-10-06T19:27:16.783Z,13.13
2022-10-06T19:29:46.806Z,11.10
2022-10-06T19:32:16.464Z,14.60
2022-10-06T19:34:44.456Z,15.80
2022-10-06T19:37:11.603Z,13.63
2022-10-06T19:39:44.391Z,12.98
2022-10-06T19:42:34.303Z,14.18
2022-10-06T19:45:01.486Z,15.07
2022-10-06T19:47:29.637Z,11.93
2022-10-06T19:50:00.861Z,16.50
2022-10-06T19:52:31.234Z,14.40
2022-10-06T19:54:58.431Z,11.95
2022-10-06T19:57:29.391Z,11.30
2022-10-06T19:59:56.593Z,9.63
2022-10-06T20:02:23.742Z,11.00
2022-10-06T20:04:50.825Z,9.68
2022-10-06T20:07:21.500Z,10.48
2022-10-06T20:09:48.776Z,12.90
2022-10-06T20:12:17.839Z,11.45
2022-10-06T20:14:47.994Z,7.82
2022-10-06T20:17:15.320Z,10.20
2022-10-06T20:19:42.396Z,17.85
2022-10-06T20:22:09.558Z,7.05
2022-10-06T20:24:36.788Z,10.05
2022-10-06T20:27:04.149Z,8.20
2022-10-06T20:29:31.481Z,9.85
2022-10-06T20:31:58.809Z,9.27
2022-10-06T20:34:31.583Z,10.00
2022-10-06T20:37:02.502Z,9.10
2022-10-06T20:39:50.360Z,13.85
2022-10-06T20:42:18.513Z,10.27
2022-10-06T20:44:45.919Z,12.95
2022-10-06T20:47:13.564Z,15.07
2022-10-06T20:49:43.865Z,18.50
2022-10-06T20:52:14.264Z,13.45
2022-10-06T20:54:41.588Z,13.10
2022-10-06T20:57:09.423Z,11.98
2022-10-06T20:59:37.492Z,15.90
2022-10-06T21:02:05.525Z,14.55
2022-10-06T21:04:34.709Z,10.30
2022-10-06T21:07:05.661Z,12.27
2022-10-06T21:09:33.059Z,13.88
2022-10-06T21:12:00.238Z,12.98
2022-10-06T21:14:27.371Z,10.40
2022-10-06T21:16:54.651Z,14.07
2022-10-06T21:19:21.815Z,8.90
2022-10-06T21:21:53.314Z,12.52
2022-10-06T21:24:20.940Z,13.40
2022-10-06T21:26:48.627Z,15.10
2022-10-06T21:29:16.211Z,9.05
2022-10-06T21:31:44.781Z,9.50
2022-10-06T21:34:14.259Z,13.35
2022-10-06T21:36:43.231Z,11.57
2022-10-06T21:39:10.934Z,11.35
2022-10-06T21:41:39.546Z,11.35
2022-10-06T21:44:17.971Z,8.88
2022-10-06T21:46:53.412Z,7.65
2022-10-06T21:49:22.135Z,12.43
2022-10-06T21:51:51.918Z,8.85
2022-10-06T21:54:19.901Z,6.95
2022-10-06T21:56:47.014Z,8.20
2022-10-06T21:59:14.513Z,10.48
2022-10-06T22:01:43.527Z,10.27
2022-10-06T22:04:12.636Z,13.07
2022-10-06T22:06:40.049Z,14.75
2022-10-06T22:09:08.554Z,12.45
2022-10-06T22:11:38.524Z,16.05
2022-10-06T22:14:08.047Z,11.52
2022-10-06T22:16:36.391Z,11.60
2022-10-06T22:19:05.521Z,11.32
2022-10-06T22:21:40.875Z,12.77
2022-10-06T22:24:14.672Z,11.65
2022-10-06T22:26:42.655Z,11.90
2022-10-06T22:29:12.320Z,14.20
2022-10-06T22:31:40.904Z,9.50
2022-10-06T22:34:10.285Z,14.50
2022-10-06T22:36:37.565Z,12.00
2022-10-06T22:39:04.636Z,13.68
2022-10-06T22:41:31.871Z,16.65
2022-10-06T22:43:59.166Z,10.88
2022-10-06T22:46:29.668Z,10.80
2022-10-06T22:48:57.303Z,10.90
2022-10-06T22:51:24.898Z,11.35
2022-10-06T22:53:57.633Z,7.97
2022-10-06T22:56:31.304Z,11.27
2022-10-06T22:59:01.794Z,14.02
2022-10-06T23:01:29.640Z,10.13
2022-10-06T23:03:57.131Z,12.20
2022-10-06T23:06:24.533Z,7.40
2022-10-06T23:08:52.361Z,11.38
2022-10-06T23:11:20.410Z,13.15
2022-10-06T23:13:48.462Z,12.85
2022-10-06T23:16:16.895Z,12.55
2022-10-06T23:18:44.355Z,14.23
2022-10-06T23:21:21.665Z,13.02
2022-10-06T23:23:53.659Z,12.90
2022-10-06T23:26:21.831Z,10.27
2022-10-06T23:28:54.611Z,10.10
2022-10-06T23:31:22.019Z,11.85
2022-10-06T23:33:49.224Z,10.15
2022-10-06T23:36:17.638Z,9.07
2022-10-06T23:38:45.351Z,12.02
2022-10-06T23:41:12.851Z,9.35
2022-10-06T23:43:40.090Z,13.32
2022-10-06T23:46:07.741Z,12.75
2022-10-06T23:48:35.093Z,11.57
2022-10-06T23:51:05.770Z,11.23
2022-10-06T23:53:33.571Z,13.80
2022-10-06T23:56:00.633Z,17.77
2022-10-06T23:58:28.035Z,13.05
